Time;durP1;ratioP1;P1;durP2;ratioP2;P2;SDS_P1;SDS_P2;PMS_P1;PMS_P2;Temp;Humidity;BMP_temperature;BMP_pressure;BME280_temperature;BME280_humidity;BME280_pressure;Samples;Min_cycle;Max_cycle;Signal;HPM_P1;HPM_P2
2024/03/10 00:01:30;;;;;;;11.87;5.97;;;12.80;99.90;;;;;;7282826;19;20192;-77
2024/03/10 00:03:56;;;;;;;11.80;5.80;;;12.70;99.90;;;;;;7284174;19;20196;-77
2024/03/10 00:06:22;;;;;;;13.27;6.20;;;12.60;99.90;;;;;;7283099;19;20198;-77
2024/03/10 00:08:48;;;;;;;13.50;6.20;;;12.60;99.90;;;;;;7282754;19;20196;-76
2024/03/10 00:11:17;;;;;;;12.37;6.43;;;12.70;99.90;;;;;;7283329;19;20191;-77
2024/03/10 00:13:43;;;;;;;15.07;6.67;;;12.60;99.90;;;;;;7283002;19;20194;-77
2024/03/10 00:16:09;;;;;;;11.80;6.20;;;12.60;99.90;;;;;;7294546;19;20202;-80
2024/03/10 00:18:38;;;;;;;15.97;6.23;;;12.60;99.90;;;;;;7300958;19;20261;-78
2024/03/10 00:21:05;;;;;;;12.40;6.20;;;12.60;99.90;;;;;;7282351;19;20188;-78
2024/03/10 00:23:31;;;;;;;15.63;6.67;;;12.70;99.90;;;;;;7284255;19;20187;-77
2024/03/10 00:25:57;;;;;;;13.67;6.03;;;12.70;99.90;;;;;;7280564;19;20572;-77
2024/03/10 00:28:23;;;;;;;14.10;6.87;;;12.70;99.90;;;;;;7282738;19;20183;-78
2024/03/10 00:30:49;;;;;;;14.33;6.23;;;12.50;99.90;;;;;;7282725;19;20206;-77
2024/03/10 00:33:15;;;;;;;13.00;6.83;;;12.50;99.90;;;;;;7281475;19;20181;-77
2024/03/10 00:35:41;;;;;;;13.60;6.67;;;12.50;99.90;;;;;;7282071;19;20190;-77
2024/03/10 00:38:07;;;;;;;13.60;6.90;;;12.40;99.90;;;;;;7303954;19;20197;-77
2024/03/10 00:40:33;;;;;;;14.40;6.50;;;12.30;99.90;;;;;;7283165;19;20201;-77
2024/03/10 00:42:59;;;;;;;13.57;6.50;;;12.30;99.90;;;;;;7283558;19;20184;-77
2024/03/10 00:45:25;;;;;;;13.27;6.60;;;12.40;99.90;;;;;;7282680;19;20653;-77
2024/03/10 00:47:55;;;;;;;12.70;6.77;;;12.40;99.90;;;;;;7280911;19;20194;-77
2024/03/10 00:50:21;;;;;;;12.10;6.60;;;12.30;99.90;;;;;;7281196;19;20194;-78
2024/03/10 00:52:47;;;;;;;16.03;7.60;;;12.30;99.90;;;;;;7279822;19;20215;-77
2024/03/10 00:55:13;;;;;;;15.90;7.80;;;12.30;99.90;;;;;;7282253;19;20190;-77
2024/03/10 00:57:40;;;;;;;12.57;6.43;;;12.20;99.90;;;;;;7289577;19;20212;-77
2024/03/10 01:00:11;;;;;;;14.73;7.53;;;12.10;99.90;;;;;;7304379;19;20557;-78
2024/03/10 01:02:38;;;;;;;14.50;7.37;;;12.10;99.90;;;;;;7281714;19;20666;-78
2024/03/10 01:05:05;;;;;;;17.00;8.07;;;12.10;99.90;;;;;;7282003;19;20651;-77
2024/03/10 01:07:31;;;;;;;14.40;8.03;;;12.10;99.90;;;;;;7281089;19;20196;-77
2024/03/10 01:09:57;;;;;;;17.67;8.63;;;12.10;99.90;;;;;;7281890;19;20194;-77
2024/03/10 01:12:23;;;;;;;15.83;8.30;;;12.10;99.90;;;;;;7282480;19;20217;-77
2024/03/10 01:14:49;;;;;;;17.07;8.20;;;12.10;99.90;;;;;;7280672;19;20556;-77
2024/03/10 01:17:15;;;;;;;19.17;8.80;;;12.10;99.90;;;;;;7280830;19;20917;-77
2024/03/10 01:19:43;;;;;;;19.77;9.37;;;12.10;99.90;;;;;;7281151;19;20669;-78
2024/03/10 01:22:09;;;;;;;17.63;8.53;;;12.10;99.90;;;;;;7293182;19;20187;-77
2024/03/10 01:24:34;;;;;;;17.37;9.13;;;12.10;99.90;;;;;;7296181;19;20184;-78
2024/03/10 01:27:02;;;;;;;18.70;8.93;;;12.10;99.90;;;;;;7281453;19;20197;-77
2024/03/10 01:29:27;;;;;;;17.13;9.10;;;12.00;99.90;;;;;;7280515;19;20620;-77
2024/03/10 01:31:55;;;;;;;19.43;9.77;;;12.10;99.90;;;;;;7281080;19;20282;-77
2024/03/10 01:34:21;;;;;;;19.40;9.53;;;12.10;99.90;;;;;;7280958;19;20207;-77
2024/03/10 01:36:47;;;;;;;18.27;9.80;;;12.10;99.90;;;;;;7285554;19;20213;-76
2024/03/10 01:39:13;;;;;;;19.33;10.13;;;12.10;99.90;;;;;;7287778;19;20675;-77
2024/03/10 01:41:39;;;;;;;19.57;10.00;;;12.00;99.90;;;;;;7304088;19;21777;-76
2024/03/10 01:44:05;;;;;;;19.47;10.03;;;12.00;99.90;;;;;;7300923;19;20213;-77
2024/03/10 01:46:32;;;;;;;20.07;10.47;;;12.00;99.90;;;;;;7287528;19;20183;-77
2024/03/10 01:48:58;;;;;;;19.63;10.40;;;11.90;99.90;;;;;;7288183;19;20188;-77
2024/03/10 01:51:24;;;;;;;20.43;10.97;;;12.00;99.90;;;;;;7288664;19;20201;-77
2024/03/10 01:53:51;;;;;;;19.83;10.50;;;12.00;99.90;;;;;;7287832;19;20214;-77
2024/03/10 01:56:18;;;;;;;19.70;10.80;;;12.00;99.90;;;;;;7287523;19;20193;-77
2024/03/10 01:58:45;;;;;;;24.60;11.50;;;12.00;99.90;;;;;;7287528;19;20189;-77
2024/03/10 02:01:13;;;;;;;22.10;11.23;;;12.00;99.90;;;;;;7288323;19;20259;-76
2024/03/10 02:03:40;;;;;;;19.27;10.77;;;12.00;99.90;;;;;;7295664;19;20308;-77
2024/03/10 02:06:09;;;;;;;21.20;11.10;;;12.00;99.90;;;;;;7309280;19;20189;-77
2024/03/10 02:08:37;;;;;;;22.87;11.37;;;11.90;99.90;;;;;;7288621;19;20213;-77
2024/03/10 02:11:06;;;;;;;21.93;11.90;;;11.90;99.90;;;;;;7284418;19;20524;-77
2024/03/10 02:13:32;;;;;;;20.10;11.60;;;12.00;99.90;;;;;;7287693;19;20292;-77
2024/03/10 02:16:05;;;;;;;21.17;11.47;;;12.00;99.90;;;;;;7286090;19;20201;-77
2024/03/10 02:18:32;;;;;;;21.67;11.57;;;11.90;99.90;;;;;;7284723;19;20190;-77
2024/03/10 02:20:58;;;;;;;23.77;12.60;;;11.90;99.90;;;;;;7286184;19;20186;-77
2024/03/10 02:23:32;;;;;;;21.33;12.50;;;11.80;99.90;;;;;;7285767;19;20716;-77
2024/03/10 02:25:59;;;;;;;24.63;12.33;;;11.80;99.90;;;;;;7286217;19;21709;-77
2024/03/10 02:28:36;;;;;;;25.07;12.43;;;11.90;99.90;;;;;;7287299;19;20195;-77
2024/03/10 02:47:33;;;;;;;22.93;13.37;;;11.90;99.90;;;;;;7284037;19;20193;-77
2024/03/10 02:50:02;;;;;;;24.03;13.60;;;11.80;99.90;;;;;;7285102;19;20179;-77
2024/03/10 02:52:28;;;;;;;24.17;12.90;;;11.80;99.90;;;;;;7286684;19;20280;-77
2024/03/10 02:54:56;;;;;;;24.30;12.37;;;11.70;99.90;;;;;;7284743;19;20704;-77
2024/03/10 02:57:22;;;;;;;22.17;12.73;;;11.70;99.90;;;;;;7284641;19;20213;-77
2024/03/10 02:59:48;;;;;;;22.40;12.83;;;11.80;99.90;;;;;;7284107;19;20186;-77
2024/03/10 03:02:18;;;;;;;25.07;13.27;;;11.70;99.90;;;;;;7284856;19;20218;-77
2024/03/10 03:04:45;;;;;;;25.80;13.20;;;11.70;99.90;;;;;;7285977;19;20568;-77
2024/03/10 03:07:11;;;;;;;22.90;12.57;;;11.80;99.90;;;;;;7286340;19;20196;-77
2024/03/10 03:09:38;;;;;;;22.57;12.37;;;11.90;99.90;;;;;;7306378;19;20215;-77
2024/03/10 03:12:04;;;;;;;22.93;13.10;;;12.00;99.90;;;;;;7285454;19;20202;-77
2024/03/10 03:14:30;;;;;;;21.63;12.40;;;11.90;99.90;;;;;;7284108;19;20259;-78
2024/03/10 03:16:56;;;;;;;26.10;12.53;;;12.00;99.90;;;;;;7285009;19;20211;-78
2024/03/10 03:19:22;;;;;;;21.37;12.63;;;12.00;99.90;;;;;;7285590;19;20194;-76
2024/03/10 03:21:48;;;;;;;24.53;13.13;;;12.10;99.90;;;;;;7283224;19;20283;-77
2024/03/10 03:24:15;;;;;;;22.63;12.93;;;12.20;99.90;;;;;;7284056;19;20186;-76
2024/03/10 03:26:42;;;;;;;25.17;13.50;;;12.30;99.90;;;;;;7286597;19;20206;-77
2024/03/10 03:29:09;;;;;;;21.50;12.73;;;12.40;99.90;;;;;;7305716;19;20222;-77
2024/03/10 03:31:35;;;;;;;23.60;13.30;;;12.50;99.90;;;;;;7284051;19;20191;-77
2024/03/10 03:34:01;;;;;;;23.17;12.97;;;12.50;99.90;;;;;;7285473;19;20193;-77
2024/03/10 03:36:27;;;;;;;23.87;13.60;;;12.50;99.90;;;;;;7284512;19;20651;-76
2024/03/10 03:38:52;;;;;;;21.23;12.33;;;12.40;99.90;;;;;;7282140;19;20187;-77
2024/03/10 03:41:18;;;;;;;24.03;13.17;;;12.40;99.90;;;;;;7282067;19;20622;-76
2024/03/10 03:43:44;;;;;;;23.93;13.03;;;12.40;99.90;;;;;;7283658;19;20188;-76
2024/03/10 03:46:10;;;;;;;21.90;12.70;;;12.40;99.90;;;;;;7292311;19;20279;-76
2024/03/10 03:48:36;;;;;;;22.83;13.10;;;12.50;99.90;;;;;;7304060;19;20183;-77
2024/03/10 03:51:03;;;;;;;23.47;13.23;;;12.40;99.90;;;;;;7283114;19;20290;-76
2024/03/10 03:53:28;;;;;;;22.67;13.30;;;12.40;99.90;;;;;;7283614;19;21014;-76
2024/03/10 03:55:54;;;;;;;20.83;12.57;;;12.40;99.90;;;;;;7283699;19;20189;-77
2024/03/10 03:58:21;;;;;;;23.03;13.57;;;12.40;99.90;;;;;;7283405;19;20642;-77
2024/03/10 04:00:47;;;;;;;21.97;13.23;;;12.40;99.90;;;;;;7283819;19;20183;-76
2024/03/10 04:03:13;;;;;;;25.13;13.87;;;12.50;99.90;;;;;;7281084;19;20173;-76
2024/03/10 04:05:42;;;;;;;22.67;12.77;;;12.50;99.90;;;;;;7297737;19;20292;-76
2024/03/10 04:08:08;;;;;;;22.97;13.23;;;12.50;99.90;;;;;;7306701;19;20183;-77
2024/03/10 04:10:37;;;;;;;23.93;13.40;;;12.50;99.90;;;;;;7281633;19;20256;-77
2024/03/10 04:13:05;;;;;;;23.70;13.53;;;12.50;99.90;;;;;;7283155;19;20181;-77
2024/03/10 04:15:35;;;;;;;23.40;13.23;;;12.50;99.90;;;;;;7282369;19;20194;-76
2024/03/10 04:18:04;;;;;;;22.23;13.50;;;12.50;99.90;;;;;;7282858;19;20211;-76
2024/03/10 04:20:32;;;;;;;25.23;13.13;;;12.60;99.90;;;;;;7283666;19;20180;-76
2024/03/10 04:22:58;;;;;;;22.67;13.20;;;12.60;99.90;;;;;;7282279;19;20545;-76
2024/03/10 04:25:24;;;;;;;23.00;13.03;;;12.50;99.90;;;;;;7283558;19;20221;-77
2024/03/10 04:27:49;;;;;;;22.77;12.87;;;12.40;99.90;;;;;;7282889;19;20183;-76
2024/03/10 04:30:16;;;;;;;22.60;12.80;;;12.40;99.90;;;;;;7282338;19;20195;-76
2024/03/10 04:32:42;;;;;;;23.20;13.27;;;12.30;99.90;;;;;;7283170;19;20302;-76
2024/03/10 04:35:09;;;;;;;25.80;13.93;;;12.30;99.90;;;;;;7304180;19;20210;-77
2024/03/10 04:37:35;;;;;;;22.50;13.07;;;12.30;99.90;;;;;;7282982;19;20707;-77
2024/03/10 04:40:01;;;;;;;28.87;13.77;;;12.40;99.90;;;;;;7281647;19;20223;-77
2024/03/10 04:42:27;;;;;;;22.27;13.27;;;12.30;99.90;;;;;;7279763;19;20195;-76
2024/03/10 04:44:53;;;;;;;24.60;13.53;;;12.30;99.90;;;;;;7280419;19;20210;-76
2024/03/10 04:47:19;;;;;;;23.17;14.00;;;12.40;99.90;;;;;;7281510;19;20194;-76
2024/03/10 04:49:44;;;;;;;23.07;13.73;;;12.40;99.90;;;;;;7279592;19;20788;-76
2024/03/10 04:52:10;;;;;;;23.20;13.43;;;12.40;99.90;;;;;;7287286;19;20191;-76
2024/03/10 04:54:36;;;;;;;25.50;13.77;;;12.30;99.90;;;;;;7302904;19;20263;-75
2024/03/10 04:57:02;;;;;;;23.47;14.60;;;12.30;99.90;;;;;;7280456;19;20191;-76
2024/03/10 04:59:27;;;;;;;25.63;14.43;;;12.30;99.90;;;;;;7280200;19;20218;-76
2024/03/10 05:01:56;;;;;;;22.57;13.13;;;12.30;99.90;;;;;;7281263;19;20547;-76
2024/03/10 05:04:22;;;;;;;24.80;14.77;;;12.20;99.90;;;;;;7281142;19;20200;-77
2024/03/10 05:06:48;;;;;;;27.50;14.30;;;12.20;99.90;;;;;;7282394;19;20203;-76
2024/03/10 05:09:15;;;;;;;24.47;14.30;;;12.20;99.90;;;;;;7281041;19;20202;-76
2024/03/10 05:11:40;;;;;;;25.43;13.87;;;12.10;99.90;;;;;;7291479;19;20195;-76
2024/03/10 05:14:06;;;;;;;26.87;14.57;;;12.20;99.90;;;;;;7313158;19;20199;-76
2024/03/10 05:16:32;;;;;;;25.47;14.87;;;12.10;99.90;;;;;;7289223;19;20199;-76
2024/03/10 05:18:58;;;;;;;25.27;13.57;;;12.10;99.90;;;;;;7287285;19;20554;-78
2024/03/10 05:21:26;;;;;;;25.20;14.60;;;12.00;99.90;;;;;;7288207;19;20209;-77
2024/03/10 05:23:55;;;;;;;23.73;13.67;;;11.90;99.90;;;;;;7288543;19;20190;-77
2024/03/10 05:26:21;;;;;;;26.27;15.13;;;11.90;99.90;;;;;;7286751;19;20193;-76
2024/03/10 05:28:47;;;;;;;25.60;15.03;;;11.90;99.90;;;;;;7287288;19;20583;-76
2024/03/10 05:31:33;;;;;;;25.83;14.90;;;11.90;99.90;;;;;;7287334;19;20200;-76
2024/03/10 05:34:00;;;;;;;26.30;13.93;;;11.80;99.90;;;;;;7286624;19;20194;-77
2024/03/10 05:36:29;;;;;;;26.97;14.73;;;11.80;99.90;;;;;;7286909;19;20208;-77
2024/03/10 05:38:56;;;;;;;29.70;16.40;;;11.80;99.90;;;;;;7286660;19;20666;-76
2024/03/10 05:41:22;;;;;;;25.20;14.33;;;11.80;99.90;;;;;;7288323;19;20200;-75
2024/03/10 05:43:47;;;;;;;26.23;15.40;;;11.70;99.90;;;;;;7286127;19;20198;-75
2024/03/10 05:46:14;;;;;;;28.90;15.10;;;11.50;99.90;;;;;;7287211;19;20656;-75
2024/03/10 05:48:42;;;;;;;25.57;14.57;;;11.40;99.90;;;;;;7304396;19;20225;-75
2024/03/10 05:51:12;;;;;;;24.93;14.20;;;11.30;99.90;;;;;;7309641;19;20274;-76
2024/03/10 05:53:39;;;;;;;24.80;14.50;;;11.30;99.90;;;;;;7287609;19;20692;-76
2024/03/10 05:56:04;;;;;;;26.90;14.87;;;11.40;99.90;;;;;;7287786;19;20224;-76
2024/03/10 05:58:40;;;;;;;25.90;15.07;;;11.50;99.90;;;;;;7284814;19;20664;-75
2024/03/10 06:01:07;;;;;;;25.93;15.83;;;11.50;99.90;;;;;;7287345;19;20188;-75
2024/03/10 06:03:32;;;;;;;29.60;16.37;;;11.40;99.90;;;;;;7286027;19;21694;-76
2024/03/10 06:05:59;;;;;;;26.27;15.53;;;11.40;99.90;;;;;;7288572;19;20222;-76
2024/03/10 06:08:24;;;;;;;29.67;15.03;;;11.30;99.90;;;;;;7285927;19;20541;-76
2024/03/10 06:10:51;;;;;;;27.00;15.40;;;11.20;99.90;;;;;;7285967;19;20198;-76
2024/03/10 06:13:17;;;;;;;25.07;14.50;;;11.20;99.90;;;;;;7287697;19;20201;-77
2024/03/10 06:15:43;;;;;;;26.07;15.50;;;11.30;99.90;;;;;;7287174;19;20253;-76
2024/03/10 06:26:21;;;;;;;23.63;14.27;;;11.40;99.90;;;;;;7182877;19;2006140;-76
2024/03/10 06:28:49;;;;;;;26.80;14.50;;;11.30;99.90;;;;;;7284906;19;20804;-76
2024/03/10 06:31:16;;;;;;;26.23;15.10;;;11.40;99.90;;;;;;7285334;19;20190;-76
2024/03/10 06:33:42;;;;;;;24.27;15.03;;;11.60;99.90;;;;;;7285226;19;20187;-77
2024/03/10 06:36:11;;;;;;;26.53;14.87;;;11.60;99.90;;;;;;7306692;19;20831;-76
2024/03/10 06:38:42;;;;;;;29.00;14.97;;;11.60;99.90;;;;;;7285945;19;20208;-76
2024/03/10 06:41:08;;;;;;;26.80;14.90;;;11.70;99.90;;;;;;7285035;19;20301;-77
2024/03/10 06:43:38;;;;;;;25.53;14.73;;;11.70;99.90;;;;;;7285145;19;20189;-76
2024/03/10 06:46:04;;;;;;;25.40;15.13;;;11.60;99.90;;;;;;7286505;19;20254;-77
2024/03/10 06:48:30;;;;;;;24.17;14.20;;;11.50;99.90;;;;;;7284104;19;20203;-77
2024/03/10 06:50:56;;;;;;;25.53;14.53;;;11.50;99.90;;;;;;7284309;19;20208;-77
2024/03/10 06:53:24;;;;;;;24.00;13.87;;;11.50;99.90;;;;;;7285759;19;20197;-77
2024/03/10 06:55:51;;;;;;;22.93;12.90;;;11.50;99.90;;;;;;7284220;19;20218;-77
2024/03/10 06:58:17;;;;;;;25.43;14.10;;;11.50;99.90;;;;;;7285745;19;20709;-76
2024/03/10 07:00:44;;;;;;;26.13;14.90;;;11.50;99.90;;;;;;7284943;19;20296;-75
2024/03/10 07:03:11;;;;;;;26.33;14.73;;;11.50;99.90;;;;;;7300881;19;20231;-75
2024/03/10 07:05:40;;;;;;;24.00;14.07;;;11.40;99.90;;;;;;7308300;19;20208;-76
2024/03/10 07:08:09;;;;;;;25.93;14.37;;;11.30;99.90;;;;;;7284604;19;20193;-75
2024/03/10 07:10:35;;;;;;;26.70;14.70;;;11.30;99.90;;;;;;7284885;19;20196;-76
2024/03/10 07:13:05;;;;;;;25.30;14.57;;;11.40;99.90;;;;;;7285023;19;20638;-76
2024/03/10 07:15:31;;;;;;;26.47;14.83;;;11.50;99.90;;;;;;7283797;19;20214;-76
2024/03/10 07:17:58;;;;;;;25.97;14.33;;;11.60;99.90;;;;;;7283637;19;20554;-76
2024/03/10 07:20:24;;;;;;;28.07;14.93;;;11.60;99.90;;;;;;7286191;19;20279;-77
2024/03/10 07:22:53;;;;;;;27.17;14.77;;;11.60;99.90;;;;;;7282796;19;20216;-76
2024/03/10 07:25:20;;;;;;;25.40;14.77;;;11.60;99.90;;;;;;7286183;19;20194;-77
2024/03/10 07:27:45;;;;;;;24.13;14.30;;;11.60;99.90;;;;;;7284782;19;20666;-75
2024/03/10 07:30:12;;;;;;;25.77;14.87;;;11.60;99.90;;;;;;7284607;19;20227;-76
2024/03/10 07:32:38;;;;;;;23.97;13.33;;;11.50;99.90;;;;;;7307151;19;20642;-76
2024/03/10 07:35:05;;;;;;;24.63;14.27;;;11.10;99.90;;;;;;7281657;19;20208;-76
2024/03/10 07:37:31;;;;;;;25.27;13.97;;;11.20;99.90;;;;;;7284868;19;20187;-76
2024/03/10 07:39:56;;;;;;;26.07;13.90;;;11.20;99.90;;;;;;7283741;19;20199;-76
2024/03/10 07:42:23;;;;;;;25.20;14.70;;;11.20;99.90;;;;;;7281068;19;20204;-75
2024/03/10 07:44:49;;;;;;;25.27;13.43;;;11.10;99.90;;;;;;7284997;19;20186;-76
2024/03/10 07:47:15;;;;;;;23.97;13.23;;;11.10;99.90;;;;;;7284785;19;20192;-76
2024/03/10 07:49:41;;;;;;;25.93;14.10;;;11.20;99.90;;;;;;7294635;19;20215;-78
2024/03/10 07:52:07;;;;;;;23.10;13.40;;;11.30;99.90;;;;;;7309379;19;20193;-77
2024/03/10 07:54:33;;;;;;;22.77;13.37;;;11.50;99.90;;;;;;7284536;19;20177;-77
2024/03/10 07:56:59;;;;;;;25.37;14.30;;;11.60;99.90;;;;;;7283233;19;20232;-77
2024/03/10 07:59:25;;;;;;;22.37;13.10;;;11.80;99.90;;;;;;7284567;19;20201;-77
2024/03/10 08:01:51;;;;;;;24.37;14.13;;;11.90;99.90;;;;;;7281582;19;20534;-77
2024/03/10 08:04:20;;;;;;;24.17;13.93;;;12.10;99.90;;;;;;7281161;19;20210;-76
2024/03/10 08:06:46;;;;;;;24.00;13.93;;;12.20;99.90;;;;;;7280915;19;20222;-77
2024/03/10 08:09:19;;;;;;;24.57;14.37;;;12.30;99.90;;;;;;7281127;19;20194;-76
2024/03/10 08:11:45;;;;;;;27.23;14.10;;;12.40;99.90;;;;;;7283878;19;20563;-76
2024/03/10 08:14:11;;;;;;;24.57;14.13;;;12.40;99.90;;;;;;7292028;19;20178;-76
2024/03/10 08:16:40;;;;;;;24.03;13.60;;;12.40;99.90;;;;;;7304585;19;20195;-77
2024/03/10 08:19:06;;;;;;;24.43;14.80;;;12.40;99.90;;;;;;7282056;19;20182;-77
2024/03/10 08:21:32;;;;;;;24.50;15.07;;;12.50;99.90;;;;;;7281998;19;20663;-78
2024/03/10 08:23:58;;;;;;;23.60;13.73;;;12.50;99.90;;;;;;7282398;19;20194;-78
2024/03/10 08:26:24;;;;;;;25.40;15.63;;;12.50;99.90;;;;;;7282758;19;20197;-77
2024/03/10 08:28:50;;;;;;;25.30;16.17;;;12.50;99.90;;;;;;7281515;19;20887;-76
2024/03/10 08:31:16;;;;;;;26.17;15.30;;;12.40;99.90;;;;;;7281756;19;20191;-76
2024/03/10 08:33:42;;;;;;;27.53;15.27;;;12.40;99.90;;;;;;7280639;19;20624;-76
2024/03/10 08:36:09;;;;;;;24.23;15.40;;;12.50;99.90;;;;;;7301955;19;20187;-76
2024/03/10 08:38:36;;;;;;;25.73;15.17;;;12.50;99.90;;;;;;7279377;19;20246;-77
2024/03/10 08:41:04;;;;;;;26.07;14.90;;;12.60;99.90;;;;;;7281298;19;20194;-76
2024/03/10 08:43:31;;;;;;;24.27;14.47;;;12.70;99.90;;;;;;7281212;19;20207;-76
2024/03/10 08:45:57;;;;;;;27.50;15.20;;;12.80;99.90;;;;;;7279525;19;20199;-77
2024/03/10 08:48:22;;;;;;;23.40;14.10;;;13.00;99.90;;;;;;7281857;19;20998;-76
2024/03/10 08:50:50;;;;;;;22.67;13.93;;;13.20;99.90;;;;;;7281587;19;20215;-78
2024/03/10 08:53:16;;;;;;;26.17;14.87;;;13.30;99.90;;;;;;7281241;19;20187;-77
2024/03/10 08:55:41;;;;;;;26.10;13.93;;;13.40;99.90;;;;;;7282898;19;20201;-77
2024/03/10 08:58:07;;;;;;;27.53;15.37;;;13.40;99.90;;;;;;7304106;19;20181;-78
2024/03/10 09:00:34;;;;;;;23.67;14.20;;;13.50;99.90;;;;;;7281090;19;20242;-78
2024/03/10 09:03:00;;;;;;;23.47;13.80;;;13.50;99.90;;;;;;7280804;19;20191;-78
2024/03/10 09:05:25;;;;;;;23.23;13.30;;;13.60;99.90;;;;;;7281840;19;20229;-78
2024/03/10 09:07:51;;;;;;;21.93;13.63;;;13.50;99.90;;;;;;7279866;19;20684;-78
2024/03/10 09:10:17;;;;;;;23.87;13.90;;;13.50;99.90;;;;;;7281784;19;20267;-78
2024/03/10 09:12:43;;;;;;;22.97;13.80;;;13.60;99.90;;;;;;7281736;19;20283;-77
2024/03/10 09:15:12;;;;;;;22.23;12.60;;;13.60;99.90;;;;;;7301343;19;20205;-77
2024/03/10 09:17:41;;;;;;;24.67;14.00;;;13.60;99.90;;;;;;7281772;19;20193;-78
2024/03/10 09:20:14;;;;;;;25.00;14.30;;;13.50;99.90;;;;;;7278164;19;20215;-78
2024/03/10 09:22:44;;;;;;;23.37;13.67;;;13.70;99.90;;;;;;7280321;19;20272;-77
2024/03/10 09:25:21;;;;;;;27.40;14.70;;;13.70;99.90;;;;;;7281154;19;20185;-78
2024/03/10 09:27:51;;;;;;;25.70;13.97;;;13.60;99.90;;;;;;7174223;19;2004609;-77
2024/03/10 09:30:22;;;;;;;23.77;14.93;;;13.70;99.90;;;;;;7279443;19;20218;-77
2024/03/10 09:32:54;;;;;;;25.70;13.70;;;13.30;99.90;;;;;;7280078;19;20196;-77
2024/03/10 09:35:23;;;;;;;22.37;13.47;;;13.10;99.90;;;;;;7279764;19;20197;-77
2024/03/10 09:37:50;;;;;;;23.67;13.47;;;13.00;99.90;;;;;;7281308;19;20209;-77
2024/03/10 09:40:16;;;;;;;25.87;14.53;;;12.80;99.90;;;;;;7280646;19;20189;-76
2024/03/10 09:42:42;;;;;;;23.30;14.17;;;12.60;99.90;;;;;;7277262;19;20185;-76
2024/03/10 09:45:15;;;;;;;23.63;13.57;;;12.80;99.90;;;;;;7301497;19;20200;-76
2024/03/10 09:47:48;;;;;;;22.00;13.07;;;13.00;99.90;;;;;;7268922;19;20222;-76
2024/03/10 09:50:22;;;;;;;22.73;13.47;;;13.10;99.90;;;;;;7280325;19;20195;-77
2024/03/10 09:52:55;;;;;;;23.63;14.23;;;13.20;99.90;;;;;;7279645;19;20197;-76
2024/03/10 09:55:21;;;;;;;23.43;13.97;;;13.40;99.90;;;;;;7275619;19;20299;-76
2024/03/10 09:57:54;;;;;;;22.43;13.90;;;13.50;99.90;;;;;;7282665;19;20184;-75
2024/03/10 10:00:23;;;;;;;23.90;14.50;;;13.60;99.90;;;;;;7285169;19;20276;-76
2024/03/10 10:02:56;;;;;;;23.13;13.47;;;13.70;99.90;;;;;;7286572;19;20202;-76
2024/03/10 10:05:32;;;;;;;25.57;14.77;;;13.70;99.90;;;;;;7285466;19;20576;-76
2024/03/10 10:07:58;;;;;;;25.17;15.10;;;13.80;99.90;;;;;;7284972;19;20190;-77
2024/03/10 10:10:26;;;;;;;25.53;15.70;;;13.90;99.90;;;;;;7285695;19;20194;-76
2024/03/10 10:12:53;;;;;;;24.63;14.67;;;13.80;99.90;;;;;;7285936;19;20189;-76
2024/03/10 10:15:22;;;;;;;24.40;15.20;;;13.60;99.90;;;;;;7284754;19;20265;-76
2024/03/10 10:17:55;;;;;;;26.13;16.17;;;13.80;99.90;;;;;;7284907;19;20185;-76
2024/03/10 10:20:28;;;;;;;26.53;15.83;;;14.00;99.90;;;;;;7284412;19;20189;-76
2024/03/10 10:23:00;;;;;;;27.73;15.83;;;13.90;99.90;;;;;;7282929;19;20648;-76
2024/03/10 10:25:31;;;;;;;27.50;15.70;;;13.50;99.90;;;;;;7285105;19;20215;-77
2024/03/10 10:27:57;;;;;;;26.97;15.90;;;13.70;99.90;;;;;;7283409;19;20256;-76
2024/03/10 10:30:27;;;;;;;27.13;15.57;;;13.70;99.90;;;;;;7284044;19;20204;-76
2024/03/10 10:33:06;;;;;;;25.83;15.50;;;13.80;99.90;;;;;;7286229;19;20213;-76
2024/03/10 10:35:39;;;;;;;28.33;16.30;;;14.00;99.90;;;;;;7284392;19;20200;-75
2024/03/10 10:38:14;;;;;;;27.97;16.77;;;14.20;99.90;;;;;;7285027;19;20192;-76
2024/03/10 10:40:41;;;;;;;26.37;15.83;;;14.40;99.90;;;;;;7285444;19;20184;-76
2024/03/10 10:43:09;;;;;;;26.43;16.90;;;14.50;99.90;;;;;;7285290;19;20188;-75
2024/03/10 10:45:35;;;;;;;29.10;16.90;;;14.50;99.90;;;;;;7285596;19;20192;-76
2024/03/10 10:48:01;;;;;;;28.00;17.73;;;14.30;99.90;;;;;;7285163;19;20227;-75
2024/03/10 10:50:34;;;;;;;27.37;17.53;;;14.20;99.90;;;;;;7284581;19;20661;-76
2024/03/10 10:53:01;;;;;;;28.73;17.17;;;14.50;99.90;;;;;;7285289;19;20197;-76
2024/03/10 10:55:28;;;;;;;28.07;16.93;;;14.60;99.90;;;;;;7283871;19;20529;-76
2024/03/10 10:58:07;;;;;;;29.00;16.90;;;14.60;99.90;;;;;;7284582;19;20817;-76
2024/03/10 11:00:33;;;;;;;26.27;16.50;;;14.50;99.90;;;;;;7283852;19;20727;-76
2024/03/10 11:03:05;;;;;;;26.30;16.40;;;14.50;99.90;;;;;;7282778;19;20298;-76
2024/03/10 11:05:30;;;;;;;28.73;15.90;;;14.60;99.90;;;;;;7283920;19;20273;-77
2024/03/10 11:07:57;;;;;;;30.20;16.53;;;14.60;99.90;;;;;;7282580;19;20202;-76
2024/03/10 11:10:46;;;;;;;27.60;16.53;;;14.50;99.90;;;;;;7279948;19;20213;-76
2024/03/10 11:13:14;;;;;;;25.17;16.07;;;14.30;99.90;;;;;;7259050;19;20227;-75
2024/03/10 11:15:41;;;;;;;26.40;16.10;;;14.30;99.90;;;;;;7304677;19;20191;-75
2024/03/10 11:18:42;;;;;;;27.13;16.23;;;14.40;99.90;;;;;;7283858;19;20196;-76
2024/03/10 11:21:17;;;;;;;25.20;15.70;;;14.70;99.90;;;;;;7179865;19;2004404;-76
2024/03/10 11:23:47;;;;;;;24.87;15.63;;;15.00;99.90;;;;;;7263484;19;20189;-76
2024/03/10 11:26:20;;;;;;;26.43;16.00;;;15.30;99.90;;;;;;7282402;19;20962;-76
2024/03/10 11:28:50;;;;;;;26.77;16.43;;;15.50;99.90;;;;;;7282904;19;20191;-76
2024/03/10 11:31:22;;;;;;;24.90;16.50;;;15.70;99.90;;;;;;7283538;19;20195;-76
2024/03/10 11:33:49;;;;;;;27.53;16.70;;;15.80;99.90;;;;;;7282151;19;20216;-76
2024/03/10 11:36:16;;;;;;;26.53;16.83;;;15.90;99.90;;;;;;7284405;19;20791;-76
2024/03/10 11:38:42;;;;;;;23.43;15.67;;;15.30;99.90;;;;;;7295069;19;20262;-76
2024/03/10 11:41:08;;;;;;;26.87;17.03;;;14.90;99.90;;;;;;7306289;19;20506;-76
2024/03/10 11:43:36;;;;;;;25.00;16.03;;;14.70;99.90;;;;;;7282286;19;20256;-76
2024/03/10 11:46:25;;;;;;;27.83;16.47;;;14.40;99.90;;;;;;7283250;19;20211;-77
2024/03/10 11:48:55;;;;;;;26.13;15.97;;;14.40;99.90;;;;;;7180250;19;2004622;-76
2024/03/10 11:51:25;;;;;;;35.17;17.97;;;14.20;99.90;;;;;;7283196;19;20201;-76
2024/03/10 11:53:51;;;;;;;28.70;17.13;;;14.10;99.90;;;;;;7283130;19;20196;-76
2024/03/10 11:56:17;;;;;;;28.90;17.70;;;14.00;99.90;;;;;;7283784;19;20197;-77
2024/03/10 11:58:47;;;;;;;28.50;16.43;;;13.90;99.90;;;;;;7281018;19;20199;-75
2024/03/10 12:01:16;;;;;;;31.73;17.77;;;13.90;99.90;;;;;;7281604;19;20192;-76
2024/03/10 12:03:43;;;;;;;25.37;16.47;;;13.80;99.90;;;;;;7290615;19;20194;-75
2024/03/10 12:06:10;;;;;;;29.50;16.90;;;13.90;99.90;;;;;;7304552;19;20200;-76
2024/03/10 12:08:42;;;;;;;27.37;16.63;;;13.90;99.90;;;;;;7281812;19;20207;-76
2024/03/10 12:11:11;;;;;;;28.00;17.07;;;14.20;99.90;;;;;;7282492;19;20205;-76
2024/03/10 12:13:41;;;;;;;27.50;16.07;;;14.60;99.90;;;;;;7279139;19;20211;-76
2024/03/10 12:16:07;;;;;;;26.93;16.53;;;15.10;99.90;;;;;;7280352;19;20197;-76
2024/03/10 12:18:35;;;;;;;26.40;16.70;;;15.50;99.90;;;;;;7282508;19;20198;-76
2024/03/10 12:21:03;;;;;;;27.20;16.07;;;15.80;99.90;;;;;;7281702;19;20783;-76
2024/03/10 12:23:36;;;;;;;27.27;16.37;;;15.90;99.90;;;;;;7281134;19;20194;-76
2024/03/10 12:26:09;;;;;;;25.27;15.70;;;16.10;99.90;;;;;;7281454;19;20185;-76
2024/03/10 12:28:39;;;;;;;26.03;15.67;;;16.40;99.90;;;;;;7280352;19;20192;-77
2024/03/10 12:31:13;;;;;;;24.70;14.93;;;16.70;99.90;;;;;;7282067;19;20223;-75
2024/03/10 12:33:44;;;;;;;22.77;14.53;;;16.80;99.90;;;;;;7280478;19;20283;-76
2024/03/10 12:36:12;;;;;;;22.73;15.07;;;17.00;99.90;;;;;;7281207;19;20200;-76
2024/03/10 12:38:39;;;;;;;25.13;15.50;;;16.90;99.90;;;;;;7280716;19;21081;-76
2024/03/10 12:41:20;;;;;;;23.47;14.87;;;16.80;99.90;;;;;;7281940;19;20189;-77
2024/03/10 12:43:46;;;;;;;23.57;14.57;;;16.70;99.90;;;;;;7258790;19;20188;-76
2024/03/10 12:46:18;;;;;;;24.10;14.70;;;17.20;99.90;;;;;;7287859;19;20189;-75
2024/03/10 12:48:45;;;;;;;27.20;16.07;;;17.60;99.90;;;;;;7280621;19;20193;-76
2024/03/10 12:51:11;;;;;;;24.57;15.10;;;17.80;99.90;;;;;;7299468;19;20188;-76
2024/03/10 12:53:39;;;;;;;24.60;14.70;;;18.40;99.90;;;;;;7297937;19;20183;-76
2024/03/10 12:56:06;;;;;;;21.67;14.03;;;19.00;99.90;;;;;;7281785;19;20652;-77